Time;durP1;ratioP1;P1;durP2;ratioP2;P2;SDS_P1;SDS_P2;PMS_P1;PMS_P2;Temp;Humidity;BMP_temperature;BMP_pressure;BME280_temperature;BME280_humidity;BME280_pressure;Samples;Min_cycle;Max_cycle;Signal;HPM_P1;HPM_P2
2021/09/26 00:01:37;;;;;;;1.53;1.37;;;;;;;;;;5044679;28;20980;-75
2021/09/26 00:04:03;;;;;;;3.43;1.20;;;;;;;;;;5054720;28;20754;-75
2021/09/26 00:06:29;;;;;;;1.07;0.83;;;;;;;;;;5037529;28;20985;-76
2021/09/26 00:08:56;;;;;;;0.80;0.73;;;;;;;;;;5034844;28;20419;-75
2021/09/26 00:11:22;;;;;;;0.83;0.60;;;;;;;;;;5034627;28;20406;-75
2021/09/26 00:13:48;;;;;;;2.10;0.83;;;;;;;;;;5033557;28;20394;-75
2021/09/26 00:16:14;;;;;;;1.37;1.10;;;;;;;;;;5033420;28;20428;-75
2021/09/26 00:18:40;;;;;;;1.07;1.00;;;;;;;;;;5051968;28;20909;-75
2021/09/26 00:21:06;;;;;;;1.37;0.80;;;;;;;;;;5044892;28;20430;-76
2021/09/26 00:23:32;;;;;;;1.00;0.97;;;;;;;;;;5034374;28;20492;-77
2021/09/26 00:25:59;;;;;;;1.60;1.50;;;;;;;;;;5038668;28;20474;-76
2021/09/26 00:28:25;;;;;;;1.20;0.83;;;;;;;;;;5042943;28;20955;-76
2021/09/26 00:30:51;;;;;;;0.93;0.93;;;;;;;;;;5053509;28;20397;-76
2021/09/26 00:33:17;;;;;;;1.07;0.97;;;;;;;;;;5053717;28;20494;-76
2021/09/26 00:35:44;;;;;;;1.03;1.00;;;;;;;;;;5044624;28;20458;-76
2021/09/26 00:38:12;;;;;;;1.43;1.10;;;;;;;;;;5053561;28;20455;-76
2021/09/26 00:40:38;;;;;;;1.43;1.33;;;;;;;;;;5050622;28;20754;-76
2021/09/26 00:43:05;;;;;;;0.90;0.90;;;;;;;;;;5037896;28;20408;-76
2021/09/26 00:45:32;;;;;;;2.23;1.30;;;;;;;;;;5053304;28;20463;-77
2021/09/26 00:47:58;;;;;;;0.80;0.80;;;;;;;;;;5046882;28;20471;-76
2021/09/26 00:50:24;;;;;;;1.17;1.17;;;;;;;;;;5034063;28;20438;-76
2021/09/26 00:52:50;;;;;;;2.20;1.00;;;;;;;;;;5033660;28;20424;-76
2021/09/26 00:55:17;;;;;;;0.97;0.87;;;;;;;;;;5037017;28;20414;-75
2021/09/26 00:57:43;;;;;;;0.70;0.60;;;;;;;;;;5047687;28;20483;-75
2021/09/26 01:00:10;;;;;;;1.37;0.90;;;;;;;;;;5052130;28;20507;-75
2021/09/26 01:02:36;;;;;;;0.80;0.80;;;;;;;;;;5037072;28;20409;-75
2021/09/26 01:05:03;;;;;;;1.90;1.80;;;;;;;;;;5037974;28;20442;-75
2021/09/26 01:07:33;;;;;;;0.73;0.73;;;;;;;;;;5052507;28;20405;-75
2021/09/26 01:10:10;;;;;;;0.90;0.80;;;;;;;;;;5039071;28;20402;-75
2021/09/26 01:12:51;;;;;;;1.20;1.00;;;;;;;;;;5033158;28;20406;-75
2021/09/26 01:15:26;;;;;;;1.20;0.90;;;;;;;;;;5033451;28;20445;-75
2021/09/26 01:18:04;;;;;;;1.23;1.10;;;;;;;;;;5032447;28;20443;-75
2021/09/26 01:20:49;;;;;;;3.17;0.97;;;;;;;;;;5032674;28;20477;-75
2021/09/26 01:23:21;;;;;;;1.00;0.90;;;;;;;;;;5021099;28;20767;-75
2021/09/26 01:26:05;;;;;;;1.20;1.10;;;;;;;;;;5041181;28;20554;-75
2021/09/26 01:28:46;;;;;;;1.23;1.17;;;;;;;;;;5051680;28;20414;-75
2021/09/26 01:31:18;;;;;;;1.03;1.03;;;;;;;;;;5029567;28;20397;-76
2021/09/26 01:33:52;;;;;;;0.83;0.83;;;;;;;;;;5032840;28;20418;-75
2021/09/26 01:36:37;;;;;;;1.23;1.13;;;;;;;;;;5037675;28;20524;-75
2021/09/26 01:39:05;;;;;;;0.80;0.80;;;;;;;;;;5052559;28;20504;-75
2021/09/26 01:41:36;;;;;;;0.87;0.83;;;;;;;;;;5042532;28;20406;-76
2021/09/26 01:44:05;;;;;;;0.70;0.70;;;;;;;;;;5040748;28;20481;-75
2021/09/26 01:46:35;;;;;;;1.30;1.07;;;;;;;;;;5032248;28;20434;-76
2021/09/26 01:49:03;;;;;;;1.60;1.40;;;;;;;;;;5032187;28;20427;-76
2021/09/26 01:51:33;;;;;;;1.10;1.00;;;;;;;;;;5041152;28;20468;-75
2021/09/26 01:54:00;;;;;;;1.67;1.10;;;;;;;;;;5045330;28;20421;-75
2021/09/26 01:56:26;;;;;;;1.40;1.30;;;;;;;;;;5041127;28;20977;-75
2021/09/26 01:58:53;;;;;;;0.93;0.83;;;;;;;;;;5032591;28;20414;-75
2021/09/26 02:01:19;;;;;;;0.80;0.77;;;;;;;;;;5032693;28;20402;-75
2021/09/26 02:03:46;;;;;;;2.50;1.00;;;;;;;;;;5032588;28;20390;-75
2021/09/26 02:06:12;;;;;;;1.80;1.70;;;;;;;;;;5032717;28;20451;-75
2021/09/26 02:08:42;;;;;;;2.33;2.13;;;;;;;;;;5041556;28;20417;-75
2021/09/26 02:11:09;;;;;;;1.23;1.13;;;;;;;;;;5039015;28;20432;-76
2021/09/26 02:13:35;;;;;;;1.20;1.10;;;;;;;;;;5032357;28;20392;-75
2021/09/26 02:16:01;;;;;;;1.83;1.20;;;;;;;;;;5029584;28;20455;-75
2021/09/26 02:18:27;;;;;;;0.80;0.70;;;;;;;;;;5041332;28;20965;-75
2021/09/26 02:20:54;;;;;;;0.83;0.83;;;;;;;;;;5051946;28;20603;-75
2021/09/26 02:23:20;;;;;;;1.50;1.03;;;;;;;;;;5050420;28;20415;-75
2021/09/26 02:25:46;;;;;;;1.73;1.33;;;;;;;;;;5043073;28;20494;-75
2021/09/26 02:28:13;;;;;;;0.97;0.97;;;;;;;;;;5051104;28;20828;-75
2021/09/26 02:30:40;;;;;;;1.03;0.80;;;;;;;;;;5050174;28;20450;-75
2021/09/26 02:33:06;;;;;;;1.37;1.27;;;;;;;;;;5051877;28;20511;-75
2021/09/26 02:35:32;;;;;;;0.90;0.90;;;;;;;;;;5051583;28;20932;-75
2021/09/26 02:37:58;;;;;;;1.40;1.30;;;;;;;;;;5038641;28;20477;-75
2021/09/26 02:40:24;;;;;;;0.80;0.70;;;;;;;;;;5036198;28;20405;-75
2021/09/26 02:42:56;;;;;;;1.30;1.20;;;;;;;;;;5041750;28;20455;-75
2021/09/26 02:45:22;;;;;;;2.13;1.43;;;;;;;;;;5043018;28;20467;-75
2021/09/26 02:47:50;;;;;;;1.27;1.17;;;;;;;;;;5050929;28;20410;-75
2021/09/26 02:50:17;;;;;;;0.80;0.80;;;;;;;;;;5051106;28;20810;-76
2021/09/26 02:52:44;;;;;;;1.10;1.00;;;;;;;;;;5046510;28;20412;-75
2021/09/26 02:55:10;;;;;;;0.90;0.90;;;;;;;;;;5042933;28;20463;-75
2021/09/26 02:57:36;;;;;;;1.93;1.43;;;;;;;;;;5028156;28;20423;-75
2021/09/26 03:00:06;;;;;;;2.10;1.33;;;;;;;;;;5032872;28;20403;-75
2021/09/26 03:02:33;;;;;;;1.13;1.13;;;;;;;;;;5044508;28;20447;-75
2021/09/26 03:05:00;;;;;;;1.20;1.10;;;;;;;;;;5030769;28;20494;-76
2021/09/26 03:07:26;;;;;;;1.37;1.17;;;;;;;;;;5040680;28;20422;-76
2021/09/26 03:09:52;;;;;;;4.60;1.90;;;;;;;;;;5046860;28;20402;-76
2021/09/26 03:12:19;;;;;;;2.43;0.97;;;;;;;;;;5029712;28;20765;-76
2021/09/26 03:14:46;;;;;;;0.70;0.70;;;;;;;;;;5046095;22;20842;-75
2021/09/26 03:17:12;;;;;;;1.30;1.20;;;;;;;;;;5037778;28;20445;-76
2021/09/26 03:19:38;;;;;;;0.90;0.90;;;;;;;;;;5030044;28;20402;-76
2021/09/26 03:22:05;;;;;;;2.17;0.90;;;;;;;;;;5042736;28;20458;-77
2021/09/26 03:24:32;;;;;;;2.80;1.63;;;;;;;;;;5023855;28;20449;-77
2021/09/26 03:27:00;;;;;;;2.03;1.33;;;;;;;;;;5011015;28;20901;-76
2021/09/26 03:29:26;;;;;;;1.00;0.90;;;;;;;;;;5013514;28;20408;-76
2021/09/26 03:31:52;;;;;;;2.50;1.70;;;;;;;;;;5011605;28;21051;-75
2021/09/26 03:34:18;;;;;;;1.53;1.33;;;;;;;;;;5012355;28;20522;-75
2021/09/26 03:36:44;;;;;;;1.13;1.00;;;;;;;;;;4993808;28;20396;-75
2021/09/26 03:39:10;;;;;;;0.80;0.80;;;;;;;;;;4994212;28;20429;-77
2021/09/26 03:41:36;;;;;;;1.10;1.00;;;;;;;;;;5011541;28;20396;-77
2021/09/26 03:44:03;;;;;;;1.13;0.90;;;;;;;;;;5011481;28;20426;-78
2021/09/26 03:46:29;;;;;;;1.40;0.80;;;;;;;;;;5009090;28;20496;-76
2021/09/26 03:48:55;;;;;;;0.83;0.83;;;;;;;;;;5013412;28;20423;-75
2021/09/26 03:51:21;;;;;;;1.37;1.27;;;;;;;;;;4998341;28;20478;-75
2021/09/26 03:53:47;;;;;;;1.57;1.47;;;;;;;;;;5017140;28;21034;-75
2021/09/26 03:56:13;;;;;;;1.30;1.20;;;;;;;;;;4997650;28;20501;-76
2021/09/26 03:58:39;;;;;;;1.20;0.90;;;;;;;;;;5018034;28;20567;-77
2021/09/26 04:01:05;;;;;;;1.00;0.90;;;;;;;;;;5026921;28;20904;-77
2021/09/26 04:03:31;;;;;;;1.03;1.03;;;;;;;;;;5034916;28;20497;-77
2021/09/26 04:05:57;;;;;;;1.03;0.93;;;;;;;;;;5034132;28;20812;-77
2021/09/26 04:08:23;;;;;;;1.10;1.00;;;;;;;;;;5020233;28;20431;-77
2021/09/26 04:10:49;;;;;;;1.50;1.17;;;;;;;;;;5013817;28;20412;-77
2021/09/26 04:13:15;;;;;;;2.40;2.20;;;;;;;;;;5014359;28;20809;-77
2021/09/26 04:15:41;;;;;;;2.13;2.03;;;;;;;;;;5016280;28;20399;-75
2021/09/26 04:18:07;;;;;;;1.83;1.17;;;;;;;;;;5001185;28;20399;-77
2021/09/26 04:20:33;;;;;;;4.30;2.30;;;;;;;;;;5020032;28;20421;-77
2021/09/26 04:22:59;;;;;;;1.37;1.27;;;;;;;;;;5016760;28;20457;-77
2021/09/26 04:25:25;;;;;;;0.80;0.80;;;;;;;;;;5021832;28;20438;-76
2021/09/26 04:27:56;;;;;;;1.48;1.38;;;;;;;;;;5013512;28;20429;-74
2021/09/26 04:30:23;;;;;;;1.13;1.03;;;;;;;;;;5014251;28;20182;-74
2021/09/26 04:32:49;;;;;;;1.17;1.17;;;;;;;;;;5022103;28;20435;-74
2021/09/26 04:35:15;;;;;;;1.63;1.53;;;;;;;;;;5013832;28;20843;-74
2021/09/26 04:37:41;;;;;;;1.43;1.33;;;;;;;;;;5013489;28;20928;-74
2021/09/26 04:40:07;;;;;;;1.73;1.63;;;;;;;;;;5013443;28;20410;-74
2021/09/26 04:42:33;;;;;;;3.07;1.63;;;;;;;;;;4996656;28;20435;-74
2021/09/26 04:44:59;;;;;;;1.10;1.00;;;;;;;;;;5013969;28;20467;-74
2021/09/26 04:47:25;;;;;;;2.37;2.17;;;;;;;;;;5013014;28;20406;-74
2021/09/26 04:49:51;;;;;;;1.23;1.13;;;;;;;;;;5013681;28;20407;-74
2021/09/26 04:52:17;;;;;;;0.80;0.70;;;;;;;;;;5013247;28;20438;-74
2021/09/26 04:54:43;;;;;;;1.10;0.87;;;;;;;;;;5013168;28;20407;-72
2021/09/26 04:57:09;;;;;;;3.13;1.27;;;;;;;;;;5012912;28;20407;-74
2021/09/26 04:59:35;;;;;;;1.80;1.70;;;;;;;;;;5029033;28;20477;-75
2021/09/26 05:02:01;;;;;;;1.63;1.27;;;;;;;;;;5014294;28;20431;-74
2021/09/26 05:04:30;;;;;;;1.47;1.30;;;;;;;;;;5007531;28;20466;-72
2021/09/26 05:06:57;;;;;;;1.53;1.43;;;;;;;;;;5012790;28;20390;-72
2021/09/26 05:09:23;;;;;;;1.37;1.23;;;;;;;;;;5013581;28;20902;-71
2021/09/26 05:11:49;;;;;;;1.43;1.33;;;;;;;;;;5013834;28;20417;-71
2021/09/26 05:14:15;;;;;;;1.87;1.77;;;;;;;;;;5013471;28;20802;-72
2021/09/26 05:16:41;;;;;;;1.07;1.07;;;;;;;;;;5012226;28;20422;-71
2021/09/26 05:19:08;;;;;;;1.80;1.70;;;;;;;;;;5012552;28;20767;-71
2021/09/26 05:21:35;;;;;;;1.00;1.00;;;;;;;;;;5013317;28;20479;-72
2021/09/26 05:24:02;;;;;;;1.10;1.00;;;;;;;;;;5012860;28;20451;-70
2021/09/26 05:26:28;;;;;;;1.67;1.00;;;;;;;;;;5011109;28;20472;-72
2021/09/26 05:28:54;;;;;;;4.90;1.70;;;;;;;;;;5013297;28;20495;-71
2021/09/26 05:31:20;;;;;;;1.37;1.27;;;;;;;;;;5018243;28;20890;-72
2021/09/26 05:33:46;;;;;;;3.17;1.83;;;;;;;;;;5016844;28;20481;-72
2021/09/26 05:36:12;;;;;;;1.20;1.10;;;;;;;;;;5019494;28;20809;-71
2021/09/26 05:38:38;;;;;;;1.70;1.60;;;;;;;;;;5012839;28;20395;-71
2021/09/26 05:41:04;;;;;;;1.00;0.90;;;;;;;;;;5011671;28;20777;-72
2021/09/26 05:43:30;;;;;;;1.70;1.60;;;;;;;;;;5013392;28;20454;-73
2021/09/26 05:45:57;;;;;;;1.30;1.20;;;;;;;;;;5011871;28;20454;-72
2021/09/26 05:48:23;;;;;;;1.20;0.97;;;;;;;;;;5012629;28;20423;-72
2021/09/26 05:50:50;;;;;;;2.47;2.27;;;;;;;;;;5013032;28;20784;-71
2021/09/26 05:53:17;;;;;;;1.63;1.53;;;;;;;;;;5012748;28;20545;-72
2021/09/26 05:55:43;;;;;;;0.93;0.90;;;;;;;;;;5011377;28;20942;-69
2021/09/26 05:58:09;;;;;;;1.30;1.10;;;;;;;;;;5010928;28;20523;-71
2021/09/26 06:00:35;;;;;;;1.50;1.27;;;;;;;;;;5011524;28;20430;-71
2021/09/26 06:03:01;;;;;;;0.70;0.70;;;;;;;;;;5012430;28;20433;-70
2021/09/26 06:05:27;;;;;;;0.93;0.80;;;;;;;;;;5012037;28;20477;-69
2021/09/26 06:07:53;;;;;;;2.50;1.50;;;;;;;;;;4996661;28;20768;-70
2021/09/26 06:10:19;;;;;;;1.33;1.23;;;;;;;;;;5012312;28;20396;-70
2021/09/26 06:12:45;;;;;;;2.70;1.73;;;;;;;;;;5010934;28;20429;-71
2021/09/26 06:15:11;;;;;;;1.20;1.10;;;;;;;;;;5015185;28;21102;-71
2021/09/26 06:17:37;;;;;;;2.93;2.07;;;;;;;;;;5011990;28;20392;-71
2021/09/26 06:20:04;;;;;;;0.80;0.80;;;;;;;;;;5012171;28;20438;-71
2021/09/26 06:22:30;;;;;;;1.67;1.27;;;;;;;;;;5012498;28;20392;-72
2021/09/26 06:24:58;;;;;;;1.97;1.87;;;;;;;;;;5011564;28;20497;-71
2021/09/26 06:27:24;;;;;;;2.00;1.10;;;;;;;;;;5010082;28;20407;-71
2021/09/26 06:29:50;;;;;;;1.20;1.10;;;;;;;;;;5011758;28;20499;-72
2021/09/26 06:32:16;;;;;;;3.00;1.60;;;;;;;;;;5019601;28;20445;-71
2021/09/26 06:34:42;;;;;;;0.90;0.87;;;;;;;;;;5013670;28;20444;-71
2021/09/26 06:37:08;;;;;;;0.80;0.80;;;;;;;;;;5010909;28;20392;-72
2021/09/26 06:39:35;;;;;;;2.17;2.07;;;;;;;;;;5011482;28;20415;-72
2021/09/26 06:42:01;;;;;;;1.37;1.17;;;;;;;;;;5011098;28;20403;-72
2021/09/26 06:44:28;;;;;;;1.37;0.93;;;;;;;;;;5004634;28;20477;-72
2021/09/26 06:46:54;;;;;;;1.07;0.97;;;;;;;;;;5011363;28;20429;-72
2021/09/26 06:49:20;;;;;;;3.10;1.60;;;;;;;;;;5012119;28;20379;-72
2021/09/26 06:51:46;;;;;;;0.93;0.83;;;;;;;;;;5010831;28;20840;-72
2021/09/26 06:54:12;;;;;;;5.07;3.23;;;;;;;;;;5011233;28;20442;-72
2021/09/26 06:56:38;;;;;;;1.33;1.23;;;;;;;;;;5010182;28;21046;-72
2021/09/26 06:59:04;;;;;;;2.60;2.23;;;;;;;;;;5010821;28;20431;-72
2021/09/26 07:01:32;;;;;;;1.23;1.00;;;;;;;;;;5018232;28;20442;-72
2021/09/26 07:03:58;;;;;;;1.33;1.23;;;;;;;;;;5011549;28;20446;-72
2021/09/26 07:06:24;;;;;;;1.07;1.00;;;;;;;;;;5009482;28;20471;-72
2021/09/26 07:08:50;;;;;;;1.10;1.00;;;;;;;;;;5011610;28;20428;-72
2021/09/26 07:11:19;;;;;;;2.83;1.77;;;;;;;;;;5012041;28;20836;-72
2021/09/26 07:13:45;;;;;;;2.23;2.03;;;;;;;;;;4993431;28;20468;-73
2021/09/26 07:16:11;;;;;;;1.30;1.20;;;;;;;;;;5010941;28;20410;-72
2021/09/26 07:18:37;;;;;;;0.70;0.70;;;;;;;;;;5011397;28;20436;-72
2021/09/26 07:21:03;;;;;;;1.63;1.53;;;;;;;;;;5011918;28;20449;-72
2021/09/26 07:23:28;;;;;;;2.00;1.90;;;;;;;;;;5009812;28;20468;-72
2021/09/26 07:25:55;;;;;;;1.27;1.17;;;;;;;;;;5014616;28;20464;-73
2021/09/26 07:28:21;;;;;;;2.63;1.77;;;;;;;;;;5014878;28;20474;-72
2021/09/26 07:30:47;;;;;;;1.33;1.23;;;;;;;;;;5015304;28;20804;-70
2021/09/26 07:33:13;;;;;;;2.00;1.17;;;;;;;;;;5021061;28;20852;-70
2021/09/26 07:35:39;;;;;;;2.40;1.20;;;;;;;;;;5015465;28;20442;-71
2021/09/26 07:38:05;;;;;;;1.40;1.30;;;;;;;;;;5014088;28;20421;-71
2021/09/26 07:40:31;;;;;;;3.47;1.57;;;;;;;;;;5015347;28;20817;-71
2021/09/26 07:42:57;;;;;;;1.60;1.50;;;;;;;;;;5013027;28;20416;-70
2021/09/26 07:45:23;;;;;;;1.00;0.90;;;;;;;;;;5013377;28;20443;-71
2021/09/26 07:47:49;;;;;;;1.80;1.70;;;;;;;;;;5014317;28;20396;-71
2021/09/26 07:50:15;;;;;;;1.60;1.50;;;;;;;;;;5019600;28;20920;-71
2021/09/26 07:52:41;;;;;;;4.10;1.13;;;;;;;;;;5015736;28;20534;-70
2021/09/26 07:55:07;;;;;;;0.70;0.70;;;;;;;;;;5015249;28;20495;-71
2021/09/26 07:57:34;;;;;;;2.20;1.37;;;;;;;;;;5014145;28;20912;-72
2021/09/26 08:00:00;;;;;;;1.20;1.10;;;;;;;;;;5014164;28;20436;-71
2021/09/26 08:02:26;;;;;;;0.70;0.70;;;;;;;;;;5016952;28;20909;-71
2021/09/26 08:04:52;;;;;;;1.20;1.10;;;;;;;;;;5032791;28;20821;-71
2021/09/26 08:07:18;;;;;;;1.40;1.30;;;;;;;;;;5033756;28;20401;-71
2021/09/26 08:09:44;;;;;;;0.97;0.80;;;;;;;;;;5030201;28;20421;-71
2021/09/26 08:12:10;;;;;;;1.83;1.73;;;;;;;;;;5014443;28;20468;-70
2021/09/26 08:14:36;;;;;;;1.23;1.13;;;;;;;;;;5014393;28;20428;-72
2021/09/26 08:17:02;;;;;;;0.83;0.83;;;;;;;;;;5013985;28;20413;-71
2021/09/26 08:19:28;;;;;;;2.37;1.40;;;;;;;;;;5013968;28;20429;-71
2021/09/26 08:21:54;;;;;;;1.00;0.90;;;;;;;;;;5014639;28;21178;-71
2021/09/26 08:24:20;;;;;;;1.87;1.73;;;;;;;;;;5014382;28;20508;-71
2021/09/26 08:26:46;;;;;;;1.40;1.30;;;;;;;;;;5013564;28;20846;-71
2021/09/26 08:29:12;;;;;;;1.53;1.43;;;;;;;;;;5014310;28;20471;-71
2021/09/26 08:31:38;;;;;;;1.27;1.17;;;;;;;;;;5022089;28;20980;-72
2021/09/26 08:34:04;;;;;;;0.97;0.83;;;;;;;;;;5024008;28;20511;-72
2021/09/26 08:36:30;;;;;;;0.90;0.90;;;;;;;;;;5032332;28;20416;-72
2021/09/26 08:38:56;;;;;;;1.53;1.20;;;;;;;;;;5015880;28;20776;-71
2021/09/26 08:41:23;;;;;;;1.30;1.20;;;;;;;;;;5014123;28;20926;-71
2021/09/26 08:43:49;;;;;;;1.70;1.43;;;;;;;;;;5013750;28;20430;-71
2021/09/26 08:46:16;;;;;;;2.30;1.70;;;;;;;;;;5013012;28;20461;-72
2021/09/26 08:48:42;;;;;;;0.83;0.83;;;;;;;;;;4996594;28;20480;-71
2021/09/26 08:51:09;;;;;;;1.83;1.37;;;;;;;;;;5014099;28;20380;-71
2021/09/26 08:53:35;;;;;;;1.67;1.57;;;;;;;;;;5013819;28;20442;-71
2021/09/26 08:56:01;;;;;;;1.27;1.17;;;;;;;;;;5013179;28;20827;-72
2021/09/26 08:58:27;;;;;;;2.57;2.37;;;;;;;;;;5013725;28;20461;-71
2021/09/26 09:00:53;;;;;;;1.33;1.00;;;;;;;;;;5015681;28;20418;-71
2021/09/26 09:03:20;;;;;;;4.00;1.33;;;;;;;;;;5019695;28;20895;-71
2021/09/26 09:05:51;;;;;;;1.00;0.90;;;;;;;;;;5012969;28;20557;-71
2021/09/26 09:08:18;;;;;;;1.30;1.10;;;;;;;;;;5014052;28;20775;-71
2021/09/26 09:10:49;;;;;;;1.40;1.20;;;;;;;;;;5013647;28;20448;-72
2021/09/26 09:13:17;;;;;;;0.90;0.90;;;;;;;;;;5013335;28;20468;-71
2021/09/26 09:15:51;;;;;;;1.27;1.17;;;;;;;;;;5013663;28;20792;-71
2021/09/26 09:18:17;;;;;;;0.97;0.87;;;;;;;;;;5013765;28;20437;-69
2021/09/26 09:20:43;;;;;;;0.80;0.80;;;;;;;;;;5013337;28;20427;-71
2021/09/26 09:23:11;;;;;;;1.77;1.63;;;;;;;;;;4995941;28;20454;-70
2021/09/26 09:25:39;;;;;;;1.47;1.20;;;;;;;;;;5013215;28;20457;-70
2021/09/26 09:28:25;;;;;;;0.80;0.80;;;;;;;;;;5012829;28;20419;-71
2021/09/26 09:30:56;;;;;;;0.97;0.90;;;;;;;;;;5014840;28;20498;-70
2021/09/26 09:33:22;;;;;;;0.70;0.67;;;;;;;;;;5020811;28;20533;-70
2021/09/26 09:35:50;;;;;;;1.00;0.90;;;;;;;;;;5020219;28;20489;-70
2021/09/26 09:38:17;;;;;;;0.90;0.90;;;;;;;;;;5013012;28;20412;-70
2021/09/26 09:40:43;;;;;;;0.80;0.70;;;;;;;;;;5012952;28;20434;-70
2021/09/26 09:43:09;;;;;;;0.90;0.90;;;;;;;;;;5013064;28;20415;-70
2021/09/26 09:45:37;;;;;;;1.40;1.30;;;;;;;;;;5013108;28;20475;-70
2021/09/26 09:48:07;;;;;;;0.83;0.83;;;;;;;;;;4994414;28;20424;-69
2021/09/26 09:50:40;;;;;;;1.10;1.10;;;;;;;;;;5013120;28;20492;-69
2021/09/26 09:53:07;;;;;;;1.30;1.13;;;;;;;;;;4995286;28;20945;-70
2021/09/26 09:55:35;;;;;;;1.73;0.97;;;;;;;;;;5012889;28;20426;-69
2021/09/26 09:58:15;;;;;;;1.60;1.00;;;;;;;;;;5018770;28;20430;-69
2021/09/26 10:00:49;;;;;;;0.80;0.70;;;;;;;;;;5016158;28;20426;-70
2021/09/26 10:03:34;;;;;;;3.53;1.00;;;;;;;;;;5011670;28;20456;-69
2021/09/26 10:06:00;;;;;;;0.83;0.80;;;;;;;;;;5011776;28;20467;-69
2021/09/26 10:08:35;;;;;;;0.80;0.80;;;;;;;;;;5012320;28;20409;-70
2021/09/26 10:11:09;;;;;;;0.77;0.77;;;;;;;;;;5012671;28;20417;-70
2021/09/26 10:13:38;;;;;;;0.90;0.87;;;;;;;;;;5012250;28;20441;-69
2021/09/26 10:16:05;;;;;;;1.43;1.27;;;;;;;;;;5011886;28;20945;-70
2021/09/26 10:18:32;;;;;;;0.73;0.73;;;;;;;;;;5012175;28;20431;-70
2021/09/26 10:20:58;;;;;;;1.07;0.80;;;;;;;;;;5012523;28;20416;-70
2021/09/26 10:23:24;;;;;;;0.70;0.60;;;;;;;;;;5011828;28;20450;-69
2021/09/26 10:25:50;;;;;;;1.10;1.00;;;;;;;;;;5011796;28;20491;-69
2021/09/26 10:28:17;;;;;;;0.90;0.70;;;;;;;;;;5022399;28;20414;-69
2021/09/26 10:30:44;;;;;;;1.50;1.00;;;;;;;;;;5018450;28;20475;-70
2021/09/26 10:33:10;;;;;;;1.37;1.27;;;;;;;;;;5010339;28;20439;-70
2021/09/26 10:35:36;;;;;;;0.90;0.90;;;;;;;;;;5012358;28;20420;-69
2021/09/26 10:38:02;;;;;;;0.90;0.80;;;;;;;;;;5011173;28;20936;-69
2021/09/26 10:40:28;;;;;;;0.90;0.90;;;;;;;;;;5012314;28;20448;-70
2021/09/26 10:42:54;;;;;;;1.30;1.23;;;;;;;;;;5012028;28;20426;-69
2021/09/26 10:45:25;;;;;;;2.10;1.13;;;;;;;;;;5011851;28;20472;-69
2021/09/26 10:47:55;;;;;;;0.80;0.80;;;;;;;;;;5011434;28;20424;-69
2021/09/26 10:50:33;;;;;;;0.90;0.77;;;;;;;;;;5016412;28;20436;-69
2021/09/26 10:53:06;;;;;;;0.70;0.70;;;;;;;;;;5022730;28;20415;-69
2021/09/26 10:55:32;;;;;;;0.70;0.60;;;;;;;;;;5031921;28;20412;-71
2021/09/26 10:58:02;;;;;;;0.80;0.67;;;;;;;;;;5015329;28;20429;-71
2021/09/26 11:00:32;;;;;;;0.60;0.60;;;;;;;;;;5011881;28;20952;-71
2021/09/26 11:03:05;;;;;;;0.83;0.83;;;;;;;;;;5020944;28;20467;-71
2021/09/26 11:05:32;;;;;;;0.70;0.60;;;;;;;;;;5031551;28;20455;-70
2021/09/26 11:07:58;;;;;;;1.07;0.83;;;;;;;;;;5030896;28;20409;-71
2021/09/26 11:10:34;;;;;;;0.63;0.63;;;;;;;;;;5030863;28;20423;-71
2021/09/26 11:13:07;;;;;;;1.40;1.30;;;;;;;;;;5011196;28;20430;-71
2021/09/26 11:15:34;;;;;;;1.20;0.80;;;;;;;;;;5021748;28;20473;-69
2021/09/26 11:18:00;;;;;;;0.70;0.70;;;;;;;;;;5011815;28;20394;-69
2021/09/26 11:20:26;;;;;;;0.70;0.60;;;;;;;;;;5011440;28;20470;-70
2021/09/26 11:23:08;;;;;;;1.00;1.00;;;;;;;;;;5011785;28;20400;-70
2021/09/26 11:25:53;;;;;;;0.63;0.60;;;;;;;;;;5010845;28;20469;-70
2021/09/26 11:28:29;;;;;;;1.10;0.77;;;;;;;;;;5020771;28;20518;-71
2021/09/26 11:30:55;;;;;;;0.77;0.70;;;;;;;;;;5031446;28;20474;-70
2021/09/26 11:33:22;;;;;;;0.60;0.60;;;;;;;;;;5020358;28;20452;-70
2021/09/26 11:35:48;;;;;;;0.70;0.67;;;;;;;;;;5019993;28;20428;-69
2021/09/26 11:38:15;;;;;;;0.90;0.70;;;;;;;;;;5031221;28;20900;-70
2021/09/26 11:40:48;;;;;;;1.10;1.00;;;;;;;;;;5013237;28;20434;-69
2021/09/26 11:43:22;;;;;;;0.60;0.60;;;;;;;;;;5011601;28;20423;-70
2021/09/26 11:45:48;;;;;;;1.43;1.33;;;;;;;;;;5010944;28;20461;-70
2021/09/26 11:48:14;;;;;;;1.00;0.80;;;;;;;;;;5011113;28;20763;-70
2021/09/26 11:50:42;;;;;;;1.10;1.10;;;;;;;;;;5018564;28;20450;-71
2021/09/26 11:53:09;;;;;;;0.70;0.70;;;;;;;;;;5014972;28;20424;-70
2021/09/26 11:55:36;;;;;;;0.90;0.60;;;;;;;;;;5018221;28;20430;-70
2021/09/26 11:58:03;;;;;;;0.67;0.60;;;;;;;;;;5022138;28;20441;-70
2021/09/26 12:00:34;;;;;;;1.00;0.60;;;;;;;;;;5031128;28;20834;-70
2021/09/26 12:03:23;;;;;;;0.73;0.73;;;;;;;;;;5020393;28;20439;-70
2021/09/26 12:05:49;;;;;;;0.67;0.67;;;;;;;;;;5010853;28;20493;-70
2021/09/26 12:08:15;;;;;;;1.70;0.97;;;;;;;;;;5022695;28;20417;-69
2021/09/26 12:10:43;;;;;;;0.60;0.60;;;;;;;;;;5032292;28;20879;-70
2021/09/26 12:13:11;;;;;;;0.67;0.57;;;;;;;;;;5034396;28;20416;-70
2021/09/26 12:15:37;;;;;;;0.60;0.60;;;;;;;;;;5034854;28;20911;-71
2021/09/26 12:18:03;;;;;;;0.60;0.50;;;;;;;;;;5014702;28;20427;-70
2021/09/26 12:20:29;;;;;;;1.20;0.63;;;;;;;;;;5014180;28;20428;-70
2021/09/26 12:22:59;;;;;;;0.70;0.60;;;;;;;;;;5013927;28;20481;-70
2021/09/26 12:25:27;;;;;;;0.60;0.50;;;;;;;;;;5014335;28;20483;-70
2021/09/26 12:27:58;;;;;;;0.80;0.80;;;;;;;;;;5008858;28;20861;-70
2021/09/26 12:30:44;;;;;;;0.60;0.57;;;;;;;;;;4996068;28;20946;-70
2021/09/26 12:33:30;;;;;;;0.70;0.70;;;;;;;;;;5013022;28;20558;-69
2021/09/26 12:35:59;;;;;;;1.77;1.67;;;;;;;;;;5014181;28;20430;-69
2021/09/26 12:38:31;;;;;;;1.67;0.80;;;;;;;;;;5025752;28;20435;-69
2021/09/26 12:41:06;;;;;;;0.80;0.70;;;;;;;;;;5034179;28;20415;-71
2021/09/26 12:43:33;;;;;;;2.17;0.87;;;;;;;;;;5027606;28;20839;-69
2021/09/26 12:46:01;;;;;;;1.10;1.10;;;;;;;;;;5013013;28;20467;-69
2021/09/26 12:48:27;;;;;;;0.70;0.70;;;;;;;;;;5013108;28;20462;-71
2021/09/26 12:50:58;;;;;;;0.70;0.70;;;;;;;;;;5013025;28;20430;-69
2021/09/26 12:53:26;;;;;;;0.80;0.70;;;;;;;;;;5013629;28;20427;-69
2021/09/26 12:55:53;;;;;;;0.60;0.60;;;;;;;;;;5012826;28;20437;-70
2021/09/26 12:58:22;;;;;;;1.40;1.30;;;;;;;;;;5013751;28;20450;-71
2021/09/26 13:00:49;;;;;;;0.93;0.70;;;;;;;;;;5014130;28;20576;-69
2021/09/26 13:03:18;;;;;;;1.13;1.13;;;;;;;;;;5020413;28;20431;-69
2021/09/26 13:05:54;;;;;;;0.70;0.70;;;;;;;;;;5011641;28;20504;-70
2021/09/26 13:08:29;;;;;;;0.97;0.87;;;;;;;;;;5009020;28;20451;-70
2021/09/26 13:11:00;;;;;;;2.10;0.77;;;;;;;;;;5011217;28;20422;-69
2021/09/26 13:13:31;;;;;;;0.97;0.80;;;;;;;;;;5011242;28;20870;-69
2021/09/26 13:16:16;;;;;;;1.33;1.27;;;;;;;;;;5012286;28;20430;-69
2021/09/26 13:18:42;;;;;;;1.00;0.90;;;;;;;;;;5013466;28;20429;-70
2021/09/26 13:21:11;;;;;;;1.00;0.90;;;;;;;;;;5012302;28;20449;-71
2021/09/26 13:23:37;;;;;;;1.33;1.20;;;;;;;;;;5011760;28;20445;-69
2021/09/26 13:26:27;;;;;;;0.73;0.73;;;;;;;;;;5012375;28;20467;-69
2021/09/26 13:28:56;;;;;;;0.67;0.63;;;;;;;;;;5013222;28;20871;-69
2021/09/26 13:31:23;;;;;;;0.97;0.90;;;;;;;;;;5012868;28;20430;-69
2021/09/26 13:34:00;;;;;;;1.00;0.70;;;;;;;;;;5016823;28;20474;-69
2021/09/26 13:36:32;;;;;;;0.70;0.70;;;;;;;;;;5014919;28;20431;-68
2021/09/26 13:39:01;;;;;;;1.57;1.30;;;;;;;;;;4993729;28;20428;-70
2021/09/26 13:41:27;;;;;;;1.13;1.10;;;;;;;;;;5010796;28;20769;-70
2021/09/26 13:43:56;;;;;;;1.00;0.80;;;;;;;;;;5012922;28;20439;-69
2021/09/26 13:46:22;;;;;;;1.10;1.00;;;;;;;;;;5012030;28;20501;-69
2021/09/26 13:48:49;;;;;;;1.17;1.07;;;;;;;;;;5012863;28;20389;-69
2021/09/26 13:51:15;;;;;;;0.87;0.87;;;;;;;;;;5012505;28;20421;-69
2021/09/26 13:53:41;;;;;;;0.70;0.70;;;;;;;;;;4994972;28;20531;-70
2021/09/26 13:56:08;;;;;;;0.80;0.80;;;;;;;;;;5012236;28;20426;-70
2021/09/26 13:58:34;;;;;;;1.20;0.87;;;;;;;;;;5012578;28;20468;-69
2021/09/26 14:01:01;;;;;;;1.07;0.97;;;;;;;;;;5012204;28;20783;-69
2021/09/26 14:03:27;;;;;;;0.70;0.60;;;;;;;;;;5001962;28;20494;-69
2021/09/26 14:05:53;;;;;;;1.10;1.00;;;;;;;;;;5012882;28;20505;-69
2021/09/26 14:08:19;;;;;;;1.20;1.00;;;;;;;;;;4995226;28;20468;-69
2021/09/26 14:10:47;;;;;;;2.40;1.00;;;;;;;;;;5012706;28;20442;-69
2021/09/26 14:13:13;;;;;;;0.80;0.70;;;;;;;;;;5011664;28;20427;-68
2021/09/26 14:15:39;;;;;;;1.40;0.87;;;;;;;;;;5012352;28;20470;-68
2021/09/26 14:18:06;;;;;;;0.80;0.77;;;;;;;;;;5011683;28;20455;-69
2021/09/26 14:20:33;;;;;;;1.23;1.13;;;;;;;;;;5012310;28;20449;-69
2021/09/26 14:22:59;;;;;;;0.80;0.80;;;;;;;;;;5012510;28;20419;-68
2021/09/26 14:25:26;;;;;;;0.80;0.77;;;;;;;;;;5011242;28;22526;-69
2021/09/26 14:27:52;;;;;;;0.80;0.60;;;;;;;;;;5020165;28;20464;-69
2021/09/26 14:30:18;;;;;;;0.80;0.80;;;;;;;;;;5012343;28;20400;-70
2021/09/26 14:32:44;;;;;;;1.63;0.97;;;;;;;;;;4993700;28;20425;-70
2021/09/26 14:35:11;;;;;;;1.00;0.77;;;;;;;;;;5010052;28;20462;-69
2021/09/26 14:37:37;;;;;;;1.13;0.93;;;;;;;;;;5010951;28;20467;-69
2021/09/26 14:40:04;;;;;;;1.37;0.90;;;;;;;;;;5012278;28;20782;-70
2021/09/26 14:42:30;;;;;;;1.33;1.03;;;;;;;;;;5011961;28;20433;-69
2021/09/26 14:44:56;;;;;;;1.30;1.00;;;;;;;;;;5003037;28;20440;-69
2021/09/26 14:47:22;;;;;;;1.10;0.97;;;;;;;;;;5010814;28;20426;-69